Tylersport, PA (18971)

6:58 AM EDT on August 30, 2016 (GMT -0400)
Woodview Drive | | Change Station

Elev 531 ft 40.41 °N, 75.38 °W | Updated 5 minutes ago

Clear
Clear
60.8 °F
Feels Like 60.8 °F
N
0.6
Wind Variable Wind from SSW
Gusts 1.9 mph

Today
High -- | Low -- °F
--% Chance of Precip.
Yesterday
High -- | Low -- °F
Precip. -- in
Pressure 30.18 in
Visibility 10.0 miles
Clouds Clear
Dew Point 55 °F
Humidity 81%
Rainfall Not available.
Snow Depth Not available.
6:27 AM 7:35 PM
Waning Crescent, 4% visible
METAR KUKT 301055Z AUTO 00000KT 10SM CLR 14/13 A3018 RMK AO1
Pressure 30.18 in
Visibility 10.0 miles
Clouds Clear
Dew Point 55 °F
Humidity 81%
Rainfall Not available.
Snow Depth Not available.
6:27 AM 7:35 PM
Waning Crescent, 4% visible
METAR KUKT 301055Z AUTO 00000KT 10SM CLR 14/13 A3018 RMK AO1

10-Day Weather Forecast

Almanac

Astronomy

Aug. 30, 2016 Rise Set
Actual Time
Civil Twilight
Nautical Twilight
Astronomical Twilight
Moon
Length of Visible Light
Length of Day
Tomorrow will be .
, % of the Moon is Illuminated

Today's Extremes

State Highs State Lows

Community

WunderPhotos

Upload Photos

1,935,809 photos uploaded!

WunderBlog® & News

Nearby

Air Quality

  Air Quality AQ Index Pollutant
Not available.

Snow Depth

Station Depth Elevation

Earthquake Activity

City Distance Mag. Time & Date
Minimum magnitude displayed is 2.5.

Coastal Water Temperatures

Place Temperature

Stations

Nearby Weather Stations

Station Location Temp. Windchill Dew Point Humidity Wind Precip. Elev Updated Type
                   

Watches & Warnings

There are currently no watches in effect.